Time;durP1;ratioP1;P1;durP2;ratioP2;P2;SDS_P1;SDS_P2;PMS_P1;PMS_P2;Temp;Humidity;BMP_temperature;BMP_pressure;BME280_temperature;BME280_humidity;BME280_pressure;Samples;Min_cycle;Max_cycle;Signal;HPM_P1;HPM_P2
2023/03/23 00:00:53;;;;;;;7.78;3.60;;;;;;;;;;5071635;28;20054;-78
2023/03/23 00:03:21;;;;;;;9.50;3.50;;;;;;;;;;5071580;28;20029;-79
2023/03/23 00:05:50;;;;;;;10.48;3.63;;;;;;;;;;5071450;28;20024;-78
2023/03/23 00:08:21;;;;;;;7.80;3.55;;;;;;;;;;5062522;28;20103;-78
2023/03/23 00:10:56;;;;;;;5.80;3.42;;;;;;;;;;5054049;28;20028;-79
2023/03/23 00:13:22;;;;;;;6.32;3.35;;;;;;;;;;5071824;28;20522;-79
2023/03/23 00:15:48;;;;;;;10.80;3.85;;;;;;;;;;5054325;28;20035;-79
2023/03/23 00:18:20;;;;;;;9.70;3.60;;;;;;;;;;5078233;28;20112;-79
2023/03/23 00:20:48;;;;;;;9.45;3.78;;;;;;;;;;5040723;28;20043;-78
2023/03/23 00:23:18;;;;;;;7.38;3.80;;;;;;;;;;5085547;28;20032;-79
2023/03/23 00:25:47;;;;;;;10.93;4.15;;;;;;;;;;5074317;28;20035;-78
2023/03/23 00:28:14;;;;;;;7.38;3.75;;;;;;;;;;5069511;28;20021;-78
2023/03/23 00:30:41;;;;;;;10.93;3.90;;;;;;;;;;5053154;28;20036;-78
2023/03/23 00:33:07;;;;;;;8.10;3.75;;;;;;;;;;5074371;28;20016;-78
2023/03/23 00:35:33;;;;;;;9.73;4.03;;;;;;;;;;5071605;28;20467;-79
2023/03/23 00:37:58;;;;;;;7.68;4.28;;;;;;;;;;5070311;28;20020;-79
2023/03/23 00:40:26;;;;;;;8.07;3.67;;;;;;;;;;5070746;28;20083;-79
2023/03/23 00:42:52;;;;;;;7.93;3.83;;;;;;;;;;5053118;28;20097;-79
2023/03/23 00:45:17;;;;;;;7.47;3.90;;;;;;;;;;5069367;28;20476;-78
2023/03/23 00:47:46;;;;;;;11.43;3.50;;;;;;;;;;5070981;28;20043;-79
2023/03/23 00:50:12;;;;;;;7.45;3.78;;;;;;;;;;5052625;28;20024;-79
2023/03/23 00:52:38;;;;;;;7.68;3.92;;;;;;;;;;5053282;28;20463;-79
2023/03/23 00:55:03;;;;;;;8.75;3.72;;;;;;;;;;5069551;28;20063;-79
2023/03/23 00:57:29;;;;;;;9.23;4.20;;;;;;;;;;5071144;28;20495;-79
2023/03/23 00:59:54;;;;;;;10.10;4.07;;;;;;;;;;5033531;28;20041;-79
2023/03/23 01:02:24;;;;;;;7.28;3.92;;;;;;;;;;5046248;28;20523;-79
2023/03/23 01:04:51;;;;;;;8.43;4.28;;;;;;;;;;5041004;28;20547;-77
2023/03/23 01:07:18;;;;;;;7.38;3.67;;;;;;;;;;5052983;28;20089;-78
2023/03/23 01:09:44;;;;;;;;;;;;;;;;;;5071621;28;20039;-79
2023/03/23 01:12:11;;;;;;;8.40;3.92;;;;;;;;;;5070555;28;19912;-78
2023/03/23 01:14:36;;;;;;;9.93;4.00;;;;;;;;;;5052722;28;20502;-79
2023/03/23 01:17:02;;;;;;;7.93;3.85;;;;;;;;;;5058428;28;20061;-79
2023/03/23 01:19:28;;;;;;;10.65;4.05;;;;;;;;;;5070937;28;20381;-79
2023/03/23 01:21:53;;;;;;;8.10;3.75;;;;;;;;;;5069220;28;20032;-78
2023/03/23 01:24:19;;;;;;;9.32;4.22;;;;;;;;;;5072461;28;20585;-78
2023/03/23 01:26:44;;;;;;;10.45;4.22;;;;;;;;;;5053624;28;20422;-78
2023/03/23 01:29:10;;;;;;;9.75;4.00;;;;;;;;;;5075152;28;20028;-78
2023/03/23 01:31:36;;;;;;;9.18;4.07;;;;;;;;;;5059990;28;20536;-78
2023/03/23 01:34:04;;;;;;;10.13;4.35;;;;;;;;;;5048095;28;20056;-78
2023/03/23 01:36:32;;;;;;;8.65;3.67;;;;;;;;;;5074776;28;20028;-78
2023/03/23 01:39:00;;;;;;;10.10;4.20;;;;;;;;;;5047675;28;20050;-78
2023/03/23 01:41:26;;;;;;;7.72;3.85;;;;;;;;;;5045591;28;20422;-78
2023/03/23 01:43:58;;;;;;;7.68;3.70;;;;;;;;;;5059381;28;20036;-78
2023/03/23 01:46:26;;;;;;;7.22;3.40;;;;;;;;;;5055527;28;20411;-78
2023/03/23 01:48:51;;;;;;;;;;;;;;;;;;5073412;28;20051;-78
2023/03/23 01:51:17;;;;;;;7.50;3.67;;;;;;;;;;5074122;28;19912;-78
2023/03/23 01:53:45;;;;;;;10.45;3.78;;;;;;;;;;5056628;28;20024;-78
2023/03/23 01:56:11;;;;;;;8.40;3.88;;;;;;;;;;5060693;28;20403;-78
2023/03/23 01:58:37;;;;;;;7.10;3.45;;;;;;;;;;5036684;28;20036;-78
2023/03/23 02:01:04;;;;;;;6.93;3.90;;;;;;;;;;5068483;28;20572;-78
2023/03/23 02:03:31;;;;;;;10.07;3.80;;;;;;;;;;5056440;28;20060;-78
2023/03/23 02:05:58;;;;;;;9.02;3.65;;;;;;;;;;5023315;28;20499;-78
2023/03/23 02:08:33;;;;;;;10.95;3.83;;;;;;;;;;5051541;28;20024;-78
2023/03/23 02:11:00;;;;;;;9.80;3.55;;;;;;;;;;5072574;28;20439;-78
2023/03/23 02:13:27;;;;;;;9.20;3.50;;;;;;;;;;5045684;28;20033;-78
2023/03/23 02:15:56;;;;;;;8.02;3.97;;;;;;;;;;5054064;28;20029;-78
2023/03/23 02:18:41;;;;;;;8.90;3.38;;;;;;;;;;5057208;28;20025;-78
2023/03/23 02:21:14;;;;;;;9.57;3.75;;;;;;;;;;5056193;28;20461;-78
2023/03/23 02:23:39;;;;;;;7.80;3.45;;;;;;;;;;5039694;28;20117;-78
2023/03/23 02:26:11;;;;;;;6.97;3.75;;;;;;;;;;5062409;28;20028;-78
2023/03/23 02:28:36;;;;;;;8.00;3.65;;;;;;;;;;5072052;28;20142;-78
2023/03/23 02:31:05;;;;;;;8.52;3.88;;;;;;;;;;5072200;28;20510;-79
2023/03/23 02:33:40;;;;;;;9.57;4.15;;;;;;;;;;5071776;28;20032;-79
2023/03/23 02:36:13;;;;;;;7.00;3.80;;;;;;;;;;5071972;28;20523;-78
2023/03/23 02:39:17;;;;;;;9.05;3.33;;;;;;;;;;5053975;28;20043;-79
2023/03/23 02:41:45;;;;;;;6.75;3.50;;;;;;;;;;5012721;28;20092;-79
2023/03/23 02:44:11;;;;;;;7.07;3.60;;;;;;;;;;4997804;28;20079;-79
2023/03/23 02:46:36;;;;;;;7.78;3.72;;;;;;;;;;5026518;28;20258;-78
2023/03/23 02:49:02;;;;;;;7.25;3.83;;;;;;;;;;5054691;28;20036;-78
2023/03/23 02:51:27;;;;;;;5.88;3.40;;;;;;;;;;5073110;28;20024;-79
2023/03/23 02:53:53;;;;;;;8.50;4.45;;;;;;;;;;5053842;28;20070;-79
2023/03/23 02:56:18;;;;;;;8.00;3.90;;;;;;;;;;5070794;28;20043;-79
2023/03/23 02:58:44;;;;;;;6.10;3.75;;;;;;;;;;5053955;28;20044;-79
2023/03/23 03:01:33;;;;;;;7.00;4.28;;;;;;;;;;5070308;28;20025;-79
2023/03/23 03:04:00;;;;;;;7.05;3.50;;;;;;;;;;5060678;28;20143;-79
2023/03/23 03:06:33;;;;;;;6.95;3.60;;;;;;;;;;5052906;28;20063;-79
2023/03/23 03:09:02;;;;;;;8.80;4.13;;;;;;;;;;5053439;28;20132;-79
2023/03/23 03:11:28;;;;;;;7.68;3.63;;;;;;;;;;5070277;28;20020;-78
2023/03/23 03:13:55;;;;;;;6.82;3.95;;;;;;;;;;5069638;28;20055;-79
2023/03/23 03:16:23;;;;;;;8.02;4.20;;;;;;;;;;5052958;28;20035;-78
2023/03/23 03:18:55;;;;;;;8.18;4.30;;;;;;;;;;5037057;28;20553;-79
2023/03/23 03:21:25;;;;;;;7.13;3.53;;;;;;;;;;5070070;28;20490;-78
2023/03/23 03:23:52;;;;;;;9.82;4.13;;;;;;;;;;5055341;28;20039;-79
2023/03/23 03:26:20;;;;;;;7.78;3.80;;;;;;;;;;5044325;28;20035;-79
2023/03/23 03:28:53;;;;;;;10.23;4.03;;;;;;;;;;5055556;28;20473;-78
2023/03/23 03:31:20;;;;;;;6.95;3.90;;;;;;;;;;5071195;28;20040;-79
2023/03/23 03:33:46;;;;;;;9.00;5.10;;;;;;;;;;5054481;28;20090;-79
2023/03/23 03:36:13;;;;;;;;;;;;;;;;;;5071577;28;20858;-79
2023/03/23 03:38:46;;;;;;;8.30;4.10;;;;;;;;;;5071075;28;20367;-79
2023/03/23 03:41:13;;;;;;;7.63;4.40;;;;;;;;;;5054131;28;20060;-80
2023/03/23 03:43:39;;;;;;;9.80;4.93;;;;;;;;;;5051668;28;20040;-79
2023/03/23 03:46:04;;;;;;;7.90;4.20;;;;;;;;;;5053885;28;20045;-79
2023/03/23 03:48:31;;;;;;;9.57;4.85;;;;;;;;;;5034446;28;20024;-79
2023/03/23 03:50:57;;;;;;;9.55;4.60;;;;;;;;;;5051776;28;20090;-79
2023/03/23 03:53:23;;;;;;;8.68;4.78;;;;;;;;;;5054902;28;20028;-80
2023/03/23 03:55:49;;;;;;;8.20;4.35;;;;;;;;;;5038270;28;20037;-79
2023/03/23 03:58:16;;;;;;;9.85;4.93;;;;;;;;;;5055123;28;20028;-79
2023/03/23 04:01:04;;;;;;;9.10;4.60;;;;;;;;;;5044666;28;20036;-79
2023/03/23 04:03:34;;;;;;;8.15;4.53;;;;;;;;;;5034985;28;20044;-79
2023/03/23 04:06:08;;;;;;;7.75;4.60;;;;;;;;;;5051467;28;20387;-79
2023/03/23 04:08:33;;;;;;;11.93;5.15;;;;;;;;;;5037374;28;20036;-79
2023/03/23 04:10:59;;;;;;;8.50;4.63;;;;;;;;;;5048950;28;20151;-80
2023/03/23 04:13:26;;;;;;;10.07;4.97;;;;;;;;;;5045930;28;20080;-79
2023/03/23 04:16:29;;;;;;;11.35;4.95;;;;;;;;;;4966684;28;20062;-79
2023/03/23 04:18:56;;;;;;;12.32;5.00;;;;;;;;;;5009351;28;20575;-79
2023/03/23 04:21:28;;;;;;;9.95;5.00;;;;;;;;;;5043689;28;20082;-79
2023/03/23 04:24:00;;;;;;;10.23;5.05;;;;;;;;;;5066439;28;20119;-79
2023/03/23 04:26:28;;;;;;;8.25;5.03;;;;;;;;;;5053896;28;20446;-80
2023/03/23 04:28:58;;;;;;;10.73;5.30;;;;;;;;;;5040213;28;20106;-80
2023/03/23 04:31:34;;;;;;;12.25;5.03;;;;;;;;;;5070799;28;20037;-79
2023/03/23 04:34:14;;;;;;;10.02;5.10;;;;;;;;;;5062381;28;20486;-80
2023/03/23 04:36:46;;;;;;;11.27;5.22;;;;;;;;;;5053162;28;20059;-80
2023/03/23 04:39:15;;;;;;;9.43;5.65;;;;;;;;;;5068608;28;20040;-80
2023/03/23 04:41:43;;;;;;;12.73;6.25;;;;;;;;;;5038313;28;20612;-81
2023/03/23 04:44:43;;;;;;;10.38;5.90;;;;;;;;;;5070988;28;20123;-79
2023/03/23 04:47:12;;;;;;;9.45;5.05;;;;;;;;;;5051624;28;20033;-80
2023/03/23 04:49:47;;;;;;;11.25;5.68;;;;;;;;;;5061431;28;20066;-79
2023/03/23 04:52:28;;;;;;;13.23;6.70;;;;;;;;;;5069276;28;20119;-81
2023/03/23 04:54:56;;;;;;;11.57;6.45;;;;;;;;;;5063733;28;20029;-80
2023/03/23 04:57:22;;;;;;;10.77;6.38;;;;;;;;;;5064809;28;20028;-80
2023/03/23 05:00:08;;;;;;;10.52;6.95;;;;;;;;;;5057389;28;20036;-80
2023/03/23 05:02:39;;;;;;;13.65;7.10;;;;;;;;;;5063812;28;20739;-80
2023/03/23 05:05:05;;;;;;;;;;;;;;;;;;5058924;28;20032;-79
2023/03/23 05:07:31;;;;;;;13.90;7.35;;;;;;;;;;5063076;28;19931;-80
2023/03/23 05:09:57;;;;;;;13.32;7.53;;;;;;;;;;5071734;28;20032;-81
2023/03/23 05:12:26;;;;;;;13.75;8.15;;;;;;;;;;5062553;28;20025;-80
2023/03/23 05:15:01;;;;;;;14.00;7.72;;;;;;;;;;5060230;28;20123;-81
2023/03/23 05:17:30;;;;;;;13.32;7.78;;;;;;;;;;5039184;28;20036;-82
2023/03/23 05:19:58;;;;;;;14.75;7.88;;;;;;;;;;5055358;28;20119;-80
2023/03/23 05:22:41;;;;;;;14.68;8.43;;;;;;;;;;5042854;28;20032;-80
2023/03/23 05:25:08;;;;;;;;;;;;;;;;;;5039243;28;20036;-80
2023/03/23 05:27:36;;;;;;;14.82;8.02;;;;;;;;;;5059677;28;19908;-80
2023/03/23 05:30:15;;;;;;;17.20;8.90;;;;;;;;;;5069011;28;20363;-80
2023/03/23 05:32:41;;;;;;;15.65;9.45;;;;;;;;;;5034147;28;20157;-79
2023/03/23 05:35:32;;;;;;;15.55;9.25;;;;;;;;;;5039562;28;20024;-80
2023/03/23 05:37:59;;;;;;;15.32;8.75;;;;;;;;;;5037053;28;20036;-80
2023/03/23 05:40:25;;;;;;;16.50;9.82;;;;;;;;;;5019511;28;20045;-80
2023/03/23 05:43:17;;;;;;;16.55;8.82;;;;;;;;;;5054276;28;20056;-80
2023/03/23 05:45:58;;;;;;;18.73;9.30;;;;;;;;;;5038618;28;20143;-79
2023/03/23 05:48:24;;;;;;;19.73;9.20;;;;;;;;;;5052357;28;20478;-79
2023/03/23 05:50:50;;;;;;;14.57;8.57;;;;;;;;;;5052794;28;20054;-80
2023/03/23 05:53:17;;;;;;;15.05;8.18;;;;;;;;;;5035844;28;20024;-80
2023/03/23 05:55:43;;;;;;;14.57;8.50;;;;;;;;;;5032546;28;20139;-80
2023/03/23 05:58:18;;;;;;;16.42;8.73;;;;;;;;;;5068048;28;20858;-78
2023/03/23 06:00:46;;;;;;;16.13;8.65;;;;;;;;;;5052743;28;20039;-81
2023/03/23 06:03:26;;;;;;;21.08;9.32;;;;;;;;;;5042861;28;20046;-80
2023/03/23 06:06:00;;;;;;;17.92;8.68;;;;;;;;;;5049403;28;20033;-80
2023/03/23 06:08:36;;;;;;;15.18;7.97;;;;;;;;;;5053384;28;20106;-80
2023/03/23 06:11:03;;;;;;;16.13;8.98;;;;;;;;;;5056328;28;20487;-80
2023/03/23 06:13:31;;;;;;;14.90;8.50;;;;;;;;;;5064212;28;20024;-80
2023/03/23 06:16:04;;;;;;;13.90;8.40;;;;;;;;;;5045983;28;20032;-79
2023/03/23 06:18:44;;;;;;;15.10;8.45;;;;;;;;;;5046946;28;20127;-80
2023/03/23 06:21:26;;;;;;;13.95;8.65;;;;;;;;;;5042151;28;20174;-80
2023/03/23 06:23:55;;;;;;;13.73;8.88;;;;;;;;;;5043202;28;20483;-79
2023/03/23 06:26:23;;;;;;;13.15;8.25;;;;;;;;;;5036052;28;20040;-79
2023/03/23 06:28:54;;;;;;;14.30;8.63;;;;;;;;;;5036468;28;20055;-80
2023/03/23 06:31:20;;;;;;;16.92;9.18;;;;;;;;;;5030201;28;20424;-80
2023/03/23 06:33:47;;;;;;;14.25;8.45;;;;;;;;;;5071427;28;20028;-81
2023/03/23 06:36:26;;;;;;;16.02;8.82;;;;;;;;;;5050181;28;20093;-80
2023/03/23 06:39:15;;;;;;;18.00;9.00;;;;;;;;;;5062584;28;20032;-81
2023/03/23 06:42:01;;;;;;;18.73;9.30;;;;;;;;;;5041669;28;20460;-80
2023/03/23 06:44:30;;;;;;;16.10;9.80;;;;;;;;;;5036573;28;20565;-80
2023/03/23 06:46:55;;;;;;;16.98;9.27;;;;;;;;;;5020875;28;20059;-81
2023/03/23 06:49:27;;;;;;;17.90;9.77;;;;;;;;;;5036939;28;20032;-79
2023/03/23 06:52:15;;;;;;;20.63;10.40;;;;;;;;;;5046133;28;20069;-80
2023/03/23 06:54:40;;;;;;;16.80;9.80;;;;;;;;;;5038995;28;20127;-80
2023/03/23 06:57:10;;;;;;;14.20;9.20;;;;;;;;;;5039105;28;20029;-80
2023/03/23 06:59:36;;;;;;;15.63;9.15;;;;;;;;;;5039042;28;20024;-80
2023/03/23 07:02:04;;;;;;;18.63;9.43;;;;;;;;;;5073264;28;20027;-80
2023/03/23 07:04:32;;;;;;;14.18;9.18;;;;;;;;;;5038479;28;20028;-79
2023/03/23 07:07:10;;;;;;;14.15;8.77;;;;;;;;;;5024828;28;20031;-81
2023/03/23 07:09:44;;;;;;;13.75;7.60;;;;;;;;;;5039725;28;20028;-80
2023/03/23 07:12:10;;;;;;;;;;;;;;;;;;5036152;28;20037;-81
2023/03/23 07:14:41;;;;;;;17.42;8.25;;;;;;;;;;5026757;28;20318;-80
2023/03/23 07:17:07;;;;;;;17.58;8.48;;;;;;;;;;5065607;28;20040;-79
2023/03/23 07:19:37;;;;;;;13.82;7.88;;;;;;;;;;5054945;28;20604;-80
2023/03/23 07:22:04;;;;;;;14.85;8.45;;;;;;;;;;5035831;28;20523;-80
2023/03/23 07:24:29;;;;;;;;;;;;;;;;;;5042070;28;20043;-80
2023/03/23 07:27:21;;;;;;;15.30;8.75;;;;;;;;;;5020933;28;20290;-80
2023/03/23 07:29:48;;;;;;;16.38;8.80;;;;;;;;;;5054502;28;20036;-80
2023/03/23 07:32:21;;;;;;;12.40;7.95;;;;;;;;;;5042860;28;20012;-81
2023/03/23 07:34:47;;;;;;;14.30;8.15;;;;;;;;;;5040937;28;20046;-81
2023/03/23 07:37:33;;;;;;;15.10;8.32;;;;;;;;;;5059844;28;20032;-81
2023/03/23 07:39:59;;;;;;;;;;;;;;;;;;5053719;28;20059;-81
2023/03/23 07:42:24;;;;;;;13.15;7.65;;;;;;;;;;5070691;28;19917;-80
2023/03/23 07:44:58;;;;;;;10.68;7.00;;;;;;;;;;5054324;28;20036;-80
2023/03/23 07:47:24;;;;;;;12.25;8.20;;;;;;;;;;5052999;28;20036;-82
2023/03/23 07:49:50;;;;;;;11.23;6.85;;;;;;;;;;5069888;28;20039;-80
2023/03/23 07:52:30;;;;;;;12.00;6.57;;;;;;;;;;5058752;28;20406;-79
2023/03/23 07:54:57;;;;;;;9.88;6.53;;;;;;;;;;5069605;28;20032;-82
2023/03/23 07:57:46;;;;;;;12.45;6.75;;;;;;;;;;5056360;28;20381;-79
2023/03/23 08:00:14;;;;;;;9.90;6.32;;;;;;;;;;5053441;28;20491;-80
2023/03/23 08:02:41;;;;;;;10.90;6.50;;;;;;;;;;5070209;28;20024;-80
2023/03/23 08:05:26;;;;;;;12.88;7.03;;;;;;;;;;5071380;28;20047;-80
2023/03/23 08:08:10;;;;;;;9.95;6.13;;;;;;;;;;5079462;28;20051;-80
2023/03/23 08:10:54;;;;;;;10.38;7.15;;;;;;;;;;5070526;28;20139;-80
2023/03/23 08:13:52;;;;;;;9.30;5.95;;;;;;;;;;5007398;28;20392;-80
2023/03/23 08:16:49;;;;;;;11.70;6.28;;;;;;;;;;5025646;28;20412;-81
2023/03/23 08:19:52;;;;;;;9.23;5.82;;;;;;;;;;4999851;28;20497;-81
2023/03/23 08:22:17;;;;;;;10.82;6.78;;;;;;;;;;5029091;28;20036;-81
2023/03/23 08:25:12;;;;;;;12.43;6.07;;;;;;;;;;5017534;28;20041;-81
2023/03/23 08:27:58;;;;;;;12.75;6.20;;;;;;;;;;5055841;28;20036;-81
2023/03/23 08:30:42;;;;;;;7.88;5.63;;;;;;;;;;5069264;28;20458;-81
2023/03/23 08:33:33;;;;;;;8.20;5.45;;;;;;;;;;5069664;28;20051;-81
2023/03/23 08:36:17;;;;;;;9.00;5.45;;;;;;;;;;5065008;28;20067;-81
2023/03/23 08:39:14;;;;;;;7.22;4.70;;;;;;;;;;5047924;28;20037;-81
2023/03/23 08:41:59;;;;;;;8.00;4.55;;;;;;;;;;5056581;28;20474;-80
2023/03/23 08:44:57;;;;;;;6.93;5.32;;;;;;;;;;5024892;28;20045;-79
2023/03/23 08:47:51;;;;;;;7.15;4.78;;;;;;;;;;5053310;28;20535;-80
2023/03/23 08:50:35;;;;;;;8.43;5.13;;;;;;;;;;5032225;28;20055;-80
2023/03/23 08:53:31;;;;;;;7.30;4.57;;;;;;;;;;4996687;28;20042;-83
2023/03/23 08:56:15;;;;;;;6.47;4.78;;;;;;;;;;5052356;28;20044;-80
2023/03/23 08:59:00;;;;;;;9.57;4.50;;;;;;;;;;5070424;28;20453;-80
2023/03/23 09:01:36;;;;;;;7.10;5.18;;;;;;;;;;5054120;28;20055;-80
2023/03/23 09:04:22;;;;;;;8.95;4.90;;;;;;;;;;5069465;28;20044;-80
2023/03/23 09:06:55;;;;;;;9.90;5.20;;;;;;;;;;5021492;28;20438;-81
2023/03/23 09:09:20;;;;;;;;;;;;;;;;;;5036223;28;20119;-81
2023/03/23 09:11:46;;;;;;;8.23;5.18;;;;;;;;;;5052350;28;20383;-82
2023/03/23 09:14:12;;;;;;;8.35;5.15;;;;;;;;;;5035868;28;20075;-82
2023/03/23 09:16:40;;;;;;;8.52;5.30;;;;;;;;;;5020011;28;20059;-81
2023/03/23 09:19:05;;;;;;;;;;;;;;;;;;5071105;28;20044;-81
2023/03/23 09:21:30;;;;;;;9.68;5.28;;;;;;;;;;5053161;28;19908;-81
2023/03/23 09:23:59;;;;;;;;;;;;;;;;;;5053753;28;20037;-81
2023/03/23 09:26:27;;;;;;;8.93;5.55;;;;;;;;;;5063160;28;19943;-80
2023/03/23 09:28:53;;;;;;;7.63;5.03;;;;;;;;;;5051953;28;20445;-80
2023/03/23 09:31:22;;;;;;;;;;;;;;;;;;5071182;28;20021;-80
2023/03/23 09:33:51;;;;;;;9.10;5.30;;;;;;;;;;5069228;28;20371;-82
2023/03/23 09:36:16;;;;;;;8.43;4.85;;;;;;;;;;5068690;28;20036;-81
2023/03/23 09:38:43;;;;;;;;;;;;;;;;;;5068694;28;20487;-80
2023/03/23 09:41:21;;;;;;;6.20;4.38;;;;;;;;;;5068586;28;20011;-80
2023/03/23 09:43:50;;;;;;;6.97;4.35;;;;;;;;;;5059966;28;20039;-80
2023/03/23 09:46:28;;;;;;;6.90;4.32;;;;;;;;;;5075257;28;20035;-80
2023/03/23 09:49:05;;;;;;;6.68;4.90;;;;;;;;;;5056870;28;20127;-81
2023/03/23 09:51:44;;;;;;;6.10;3.92;;;;;;;;;;5072921;28;20032;-81
2023/03/23 09:54:16;;;;;;;5.07;4.00;;;;;;;;;;5056407;28;20066;-81
2023/03/23 09:56:41;;;;;;;4.60;3.53;;;;;;;;;;5074240;28;20036;-80
2023/03/23 09:59:28;;;;;;;7.10;4.30;;;;;;;;;;5072785;28;20037;-81
2023/03/23 10:01:55;;;;;;;5.75;4.10;;;;;;;;;;5055575;28;20037;-81
2023/03/23 10:04:32;;;;;;;8.27;3.60;;;;;;;;;;5072357;28;20452;-80
2023/03/23 10:06:58;;;;;;;5.88;3.92;;;;;;;;;;5038312;28;20518;-82
2023/03/23 10:09:24;;;;;;;3.95;3.20;;;;;;;;;;5049202;28;20078;-81
2023/03/23 10:11:53;;;;;;;5.20;3.47;;;;;;;;;;5039609;28;20036;-81
2023/03/23 10:14:42;;;;;;;5.05;3.10;;;;;;;;;;5056134;28;20028;-81
2023/03/23 10:17:07;;;;;;;6.43;3.45;;;;;;;;;;5055627;28;20047;-80
2023/03/23 10:19:35;;;;;;;4.97;3.42;;;;;;;;;;5072315;28;20375;-82
2023/03/23 10:22:06;;;;;;;5.78;3.30;;;;;;;;;;5072681;28;20044;-81
2023/03/23 10:24:35;;;;;;;4.35;3.03;;;;;;;;;;5070365;28;20032;-81
2023/03/23 10:27:11;;;;;;;4.50;2.60;;;;;;;;;;5073058;28;20502;-81
2023/03/23 10:29:38;;;;;;;4.95;2.50;;;;;;;;;;5072002;28;20021;-81
2023/03/23 10:32:11;;;;;;;3.97;2.60;;;;;;;;;;5054707;28;20115;-81
2023/03/23 10:35:06;;;;;;;4.03;2.47;;;;;;;;;;5063266;28;20040;-81
2023/03/23 10:37:33;;;;;;;3.90;2.35;;;;;;;;;;5058355;28;20028;-81
2023/03/23 10:40:00;;;;;;;4.30;2.30;;;;;;;;;;5071820;28;20044;-81
2023/03/23 10:42:29;;;;;;;5.95;2.53;;;;;;;;;;5071668;28;20087;-81
2023/03/23 10:44:56;;;;;;;3.50;2.40;;;;;;;;;;5054888;28;20032;-81
2023/03/23 10:47:22;;;;;;;3.78;2.22;;;;;;;;;;5073154;28;20037;-82
2023/03/23 10:49:50;;;;;;;3.25;2.53;;;;;;;;;;5073011;28;20368;-80
2023/03/23 10:52:28;;;;;;;5.45;2.63;;;;;;;;;;5071387;28;20040;-81
2023/03/23 10:54:58;;;;;;;2.95;2.40;;;;;;;;;;5054214;28;20056;-80
2023/03/23 10:57:24;;;;;;;4.47;2.30;;;;;;;;;;5054727;28;20030;-81
2023/03/23 10:59:50;;;;;;;6.30;2.58;;;;;;;;;;5055917;28;20048;-81
2023/03/23 11:02:19;;;;;;;4.05;2.30;;;;;;;;;;5045046;28;20098;-80
2023/03/23 11:05:04;;;;;;;3.33;2.22;;;;;;;;;;5068649;28;20036;-82
2023/03/23 11:07:32;;;;;;;4.90;2.80;;;;;;;;;;5072307;28;20032;-81
2023/03/23 11:10:03;;;;;;;3.88;2.33;;;;;;;;;;5069460;28;20017;-82
2023/03/23 11:12:28;;;;;;;3.83;2.70;;;;;;;;;;5055358;28;20043;-82
2023/03/23 11:15:03;;;;;;;4.38;2.53;;;;;;;;;;5039585;28;20389;-81
2023/03/23 11:17:29;;;;;;;5.07;2.67;;;;;;;;;;5072584;28;20115;-82
2023/03/23 11:19:55;;;;;;;6.35;2.78;;;;;;;;;;5093029;28;20126;-82
2023/03/23 11:22:27;;;;;;;5.03;2.78;;;;;;;;;;5078486;28;20086;-82
2023/03/23 11:24:57;;;;;;;5.80;2.70;;;;;;;;;;5067000;28;20115;-81
2023/03/23 11:27:23;;;;;;;5.78;2.78;;;;;;;;;;5054844;28;20033;-81
2023/03/23 11:29:59;;;;;;;4.90;2.65;;;;;;;;;;5072882;28;20058;-82
2023/03/23 11:32:27;;;;;;;4.68;2.70;;;;;;;;;;5072830;28;20503;-83
2023/03/23 11:35:04;;;;;;;4.88;2.95;;;;;;;;;;5054751;28;20028;-81
2023/03/23 11:37:32;;;;;;;4.97;2.70;;;;;;;;;;5073176;28;20047;-80
2023/03/23 11:40:06;;;;;;;4.72;2.42;;;;;;;;;;5071079;28;20062;-83
2023/03/23 11:42:31;;;;;;;5.03;3.20;;;;;;;;;;5071285;28;20075;-80
2023/03/23 11:45:08;;;;;;;7.15;3.45;;;;;;;;;;5072066;28;20059;-80
2023/03/23 11:47:39;;;;;;;6.85;3.35;;;;;;;;;;5054147;28;20028;-80
2023/03/23 11:50:09;;;;;;;7.13;3.97;;;;;;;;;;5072544;28;20440;-82
2023/03/23 11:52:43;;;;;;;5.25;3.30;;;;;;;;;;5053760;28;20519;-81
2023/03/23 11:55:12;;;;;;;8.30;3.55;;;;;;;;;;5041198;28;20032;-80
2023/03/23 11:57:37;;;;;;;8.73;4.07;;;;;;;;;;5053624;28;20506;-80
2023/03/23 12:00:16;;;;;;;7.82;3.63;;;;;;;;;;5070259;28;20060;-81
2023/03/23 12:02:51;;;;;;;9.05;3.78;;;;;;;;;;5072178;28;20123;-82
2023/03/23 12:05:54;;;;;;;9.07;3.47;;;;;;;;;;5070224;28;20418;-81
2023/03/23 12:08:31;;;;;;;8.38;4.15;;;;;;;;;;5061651;28;20040;-81
2023/03/23 12:10:59;;;;;;;8.50;4.00;;;;;;;;;;5071764;28;20082;-81
2023/03/23 12:13:52;;;;;;;9.82;3.80;;;;;;;;;;5052854;28;20395;-81
2023/03/23 12:16:18;;;;;;;6.00;3.60;;;;;;;;;;5052074;28;20032;-81
2023/03/23 12:18:43;;;;;;;;;;;;;;;;;;5070938;28;20419;-81
2023/03/23 12:21:13;;;;;;;7.88;3.50;;;;;;;;;;5072980;28;20419;-81
2023/03/23 12:23:39;;;;;;;7.90;3.35;;;;;;;;;;5072030;28;20082;-81
2023/03/23 12:26:18;;;;;;;5.95;3.50;;;;;;;;;;5055820;28;20412;-80
2023/03/23 12:28:53;;;;;;;5.78;3.20;;;;;;;;;;5072279;28;20487;-80
2023/03/23 12:31:25;;;;;;;6.43;3.93;;;;;;;;;;5018053;28;20037;-81
2023/03/23 12:34:09;;;;;;;7.80;3.58;;;;;;;;;;5070222;28;20060;-80
2023/03/23 12:36:50;;;;;;;6.15;3.15;;;;;;;;;;5071442;28;20036;-81
2023/03/23 12:39:19;;;;;;;5.95;2.80;;;;;;;;;;5053977;28;20036;-80
2023/03/23 12:42:02;;;;;;;7.93;3.53;;;;;;;;;;5071837;28;20048;-81
2023/03/23 12:44:33;;;;;;;4.72;3.08;;;;;;;;;;5071010;28;20539;-81
2023/03/23 12:47:07;;;;;;;6.20;3.58;;;;;;;;;;5057225;28;20458;-81
2023/03/23 12:49:35;;;;;;;10.57;3.20;;;;;;;;;;5069844;28;20086;-80
2023/03/23 12:52:16;;;;;;;6.45;3.30;;;;;;;;;;5053914;28;20036;-81
2023/03/23 12:54:49;;;;;;;6.00;3.00;;;;;;;;;;5070634;28;20040;-81
2023/03/23 12:57:30;;;;;;;4.55;2.70;;;;;;;;;;5054010;28;20090;-81
2023/03/23 13:00:19;;;;;;;7.97;3.22;;;;;;;;;;5053654;28;20044;-81
2023/03/23 13:02:46;;;;;;;6.03;3.35;;;;;;;;;;5052787;28;20075;-81
2023/03/23 13:05:32;;;;;;;5.28;3.05;;;;;;;;;;5071055;28;20162;-81
2023/03/23 13:08:05;;;;;;;6.50;3.17;;;;;;;;;;5072685;28;20036;-80
2023/03/23 13:10:33;;;;;;;5.13;3.10;;;;;;;;;;5053084;28;20035;-81
2023/03/23 13:12:58;;;;;;;4.30;3.10;;;;;;;;;;5040096;28;20028;-80
2023/03/23 13:15:23;;;;;;;;;;;;;;;;;;5053132;28;20522;-81
2023/03/23 13:17:49;;;;;;;;;;;;;;;;;;5053249;28;19994;-81
2023/03/23 13:20:15;;;;;;;;;;;;;;;;;;5070750;28;19918;-81
2023/03/23 13:22:41;;;;;;;;;;;;;;;;;;5036879;28;19908;-81
2023/03/23 13:25:08;;;;;;;;;;;;;;;;;;5039201;28;19916;-82
2023/03/23 13:27:35;;;;;;;;;;;;;;;;;;5070832;28;19956;-82
2023/03/23 13:30:01;;;;;;;;;;;;;;;;;;5071271;28;19912;-81
2023/03/23 13:32:27;;;;;;;;;;;;;;;;;;5047198;28;19984;-79
2023/03/23 13:34:52;;;;;;;;;;;;;;;;;;5083001;28;19950;-80
2023/03/23 13:37:18;;;;;;;;;;;;;;;;;;5056524;28;20252;-80
2023/03/23 13:39:43;;;;;;;;;;;;;;;;;;5079737;28;19912;-82
2023/03/23 13:42:08;;;;;;;;;;;;;;;;;;5070932;28;19924;-81
2023/03/23 13:44:34;;;;;;;;;;;;;;;;;;5071000;28;19923;-81
2023/03/23 13:46:59;;;;;;;;;;;;;;;;;;5038546;28;20016;-80
2023/03/23 13:49:27;;;;;;;;;;;;;;;;;;5071170;28;19940;-80
2023/03/23 13:51:52;;;;;;;;;;;;;;;;;;5071588;28;19908;-81
2023/03/23 13:54:18;;;;;;;;;;;;;;;;;;5071462;28;19912;-82
2023/03/23 13:56:43;;;;;;;;;;;;;;;;;;5068530;28;19913;-81
2023/03/23 13:59:08;;;;;;;;;;;;;;;;;;5068918;28;19965;-80
2023/03/23 14:01:35;;;;;;;;;;;;;;;;;;5070587;28;19908;-81
2023/03/23 14:04:01;;;;;;;;;;;;;;;;;;5069002;28;20420;-80
2023/03/23 14:06:26;;;;;;;;;;;;;;;;;;5054294;28;19932;-80
2023/03/23 14:09:04;;;;;;;;;;;;;;;;;;5068443;28;20017;-80
2023/03/23 14:11:30;;;;;;;;;;;;;;;;;;5054422;28;20006;-80
2023/03/23 14:13:55;;;;;;;;;;;;;;;;;;5068551;28;19909;-81
2023/03/23 14:16:21;;;;;;;;;;;;;;;;;;5070518;28;20395;-82
2023/03/23 14:18:46;;;;;;;;;;;;;;;;;;5067932;28;19909;-80
2023/03/23 14:21:12;;;;;;;;;;;;;;;;;;5069278;28;19912;-81
2023/03/23 14:23:37;;;;;;;;;;;;;;;;;;5070793;28;20058;-81
2023/03/23 14:26:07;;;;;;;;;;;;;;;;;;5054379;28;20344;-81
2023/03/23 14:28:32;;;;;;;;;;;;;;;;;;5063258;28;19919;-80
2023/03/23 14:30:58;;;;;;;;;;;;;;;;;;5072880;28;19912;-80
2023/03/23 14:33:23;;;;;;;;;;;;;;;;;;5066491;28;19950;-80
2023/03/23 14:35:49;;;;;;;;;;;;;;;;;;5072406;28;20357;-80
2023/03/23 14:38:14;;;;;;;;;;;;;;;;;;5072023;28;19908;-80
2023/03/23 14:40:39;;;;;;;;;;;;;;;;;;5073535;28;20019;-80
2023/03/23 14:43:05;;;;;;;;;;;;;;;;;;5073171;28;19916;-80
2023/03/23 14:45:31;;;;;;;;;;;;;;;;;;5072030;28;19916;-80
2023/03/23 14:47:57;;;;;;;;;;;;;;;;;;5072918;28;19908;-80
2023/03/23 14:50:22;;;;;;;;;;;;;;;;;;5073803;28;19912;-79
2023/03/23 14:52:47;;;;;;;;;;;;;;;;;;5073095;28;19915;-81
2023/03/23 14:55:13;;;;;;;;;;;;;;;;;;5073926;28;19974;-83
2023/03/23 14:57:38;;;;;;;;;;;;;;;;;;5062877;28;20395;-81
2023/03/23 15:00:04;;;;;;;;;;;;;;;;;;5062774;28;19912;-81
2023/03/23 15:02:29;;;;;;;;;;;;;;;;;;5061174;28;20264;-80
2023/03/23 15:04:55;;;;;;;;;;;;;;;;;;5056269;28;19917;-80
2023/03/23 15:07:20;;;;;;;;;;;;;;;;;;5073716;28;19915;-81
2023/03/23 15:09:46;;;;;;;;;;;;;;;;;;5055897;28;19951;-81
2023/03/23 15:12:11;;;;;;;;;;;;;;;;;;5064847;28;19913;-81
2023/03/23 15:14:36;;;;;;;;;;;;;;;;;;5059491;28;19913;-80
2023/03/23 15:17:02;;;;;;;;;;;;;;;;;;5060255;28;20372;-81
2023/03/23 15:19:27;;;;;;;;;;;;;;;;;;5074185;28;20332;-81
2023/03/23 15:21:52;;;;;;;;;;;;;;;;;;5076573;28;19951;-81
2023/03/23 15:24:18;;;;;;;;;;;;;;;;;;5076174;28;20283;-81